sensor_id;sensor_type;location;lat;lon;timestamp;temperature;humidity
6581;DHT22;3324;50.796;7.228;2024-01-16T00:02:19;2.80;99.90
6581;DHT22;3324;50.796;7.228;2024-01-16T00:04:44;2.90;99.90
6581;DHT22;3324;50.796;7.228;2024-01-16T00:07:10;2.90;99.90
6581;DHT22;3324;50.796;7.228;2024-01-16T00:09:36;2.90;99.90
6581;DHT22;3324;50.796;7.228;2024-01-16T00:12:02;2.80;99.90
6581;DHT22;3324;50.796;7.228;2024-01-16T00:14:27;2.90;99.90
6581;DHT22;3324;50.796;7.228;2024-01-16T00:16:53;2.90;99.90
6581;DHT22;3324;50.796;7.228;2024-01-16T00:19:18;2.90;99.90
6581;DHT22;3324;50.796;7.228;2024-01-16T00:21:44;2.90;99.90
6581;DHT22;3324;50.796;7.228;2024-01-16T00:24:13;2.90;99.90
6581;DHT22;3324;50.796;7.228;2024-01-16T00:26:38;2.90;99.90
6581;DHT22;3324;50.796;7.228;2024-01-16T00:29:03;2.80;99.90
6581;DHT22;3324;50.796;7.228;2024-01-16T00:31:29;2.90;99.90
6581;DHT22;3324;50.796;7.228;2024-01-16T00:33:54;2.90;99.90
6581;DHT22;3324;50.796;7.228;2024-01-16T00:36:20;2.90;99.90
6581;DHT22;3324;50.796;7.228;2024-01-16T00:38:45;2.80;99.90
6581;DHT22;3324;50.796;7.228;2024-01-16T00:41:12;2.90;99.90
6581;DHT22;3324;50.796;7.228;2024-01-16T00:43:38;2.90;99.90
6581;DHT22;3324;50.796;7.228;2024-01-16T00:46:03;2.80;99.90
6581;DHT22;3324;50.796;7.228;2024-01-16T00:48:29;2.80;99.90
6581;DHT22;3324;50.796;7.228;2024-01-16T00:50:54;2.80;99.90
6581;DHT22;3324;50.796;7.228;2024-01-16T00:53:20;2.90;99.90
6581;DHT22;3324;50.796;7.228;2024-01-16T00:55:45;2.90;99.90
6581;DHT22;3324;50.796;7.228;2024-01-16T00:58:10;2.90;99.90
6581;DHT22;3324;50.796;7.228;2024-01-16T01:00:36;2.80;99.90
6581;DHT22;3324;50.796;7.228;2024-01-16T01:03:02;2.80;99.90
6581;DHT22;3324;50.796;7.228;2024-01-16T01:05:29;2.90;99.90
6581;DHT22;3324;50.796;7.228;2024-01-16T01:07:57;2.90;99.90
6581;DHT22;3324;50.796;7.228;2024-01-16T01:10:23;2.90;99.90
6581;DHT22;3324;50.796;7.228;2024-01-16T01:12:49;2.90;99.90
6581;DHT22;3324;50.796;7.228;2024-01-16T01:15:14;2.90;99.90
6581;DHT22;3324;50.796;7.228;2024-01-16T01:17:40;2.90;99.90
6581;DHT22;3324;50.796;7.228;2024-01-16T01:20:06;2.90;99.90
6581;DHT22;3324;50.796;7.228;2024-01-16T01:22:32;2.90;99.90
6581;DHT22;3324;50.796;7.228;2024-01-16T01:24:57;2.90;99.90
6581;DHT22;3324;50.796;7.228;2024-01-16T01:27:25;2.90;99.90
6581;DHT22;3324;50.796;7.228;2024-01-16T01:29:51;2.90;99.90
6581;DHT22;3324;50.796;7.228;2024-01-16T01:32:16;2.80;99.90
6581;DHT22;3324;50.796;7.228;2024-01-16T01:34:42;2.90;99.90
6581;DHT22;3324;50.796;7.228;2024-01-16T01:37:07;2.80;99.90
6581;DHT22;3324;50.796;7.228;2024-01-16T01:39:33;2.80;99.90
6581;DHT22;3324;50.796;7.228;2024-01-16T01:41:59;2.90;99.90
6581;DHT22;3324;50.796;7.228;2024-01-16T01:44:24;2.90;99.90
6581;DHT22;3324;50.796;7.228;2024-01-16T01:46:51;2.80;99.90
6581;DHT22;3324;50.796;7.228;2024-01-16T01:49:16;2.80;99.90
6581;DHT22;3324;50.796;7.228;2024-01-16T01:51:42;2.80;99.90
6581;DHT22;3324;50.796;7.228;2024-01-16T01:54:08;2.90;99.90
6581;DHT22;3324;50.796;7.228;2024-01-16T01:56:34;2.90;99.90
6581;DHT22;3324;50.796;7.228;2024-01-16T01:59:00;2.80;99.90
6581;DHT22;3324;50.796;7.228;2024-01-16T02:01:27;2.90;99.90
6581;DHT22;3324;50.796;7.228;2024-01-16T02:03:53;2.90;99.90
6581;DHT22;3324;50.796;7.228;2024-01-16T02:06:20;2.80;99.90
6581;DHT22;3324;50.796;7.228;2024-01-16T02:08:45;2.80;99.90
6581;DHT22;3324;50.796;7.228;2024-01-16T02:11:11;2.80;99.90
6581;DHT22;3324;50.796;7.228;2024-01-16T02:13:36;2.90;99.90
6581;DHT22;3324;50.796;7.228;2024-01-16T02:16:02;2.90;99.90
6581;DHT22;3324;50.796;7.228;2024-01-16T02:18:28;2.80;99.90
6581;DHT22;3324;50.796;7.228;2024-01-16T02:20:56;2.80;99.90
6581;DHT22;3324;50.796;7.228;2024-01-16T02:23:27;2.90;99.90
6581;DHT22;3324;50.796;7.228;2024-01-16T02:25:53;2.90;99.90
6581;DHT22;3324;50.796;7.228;2024-01-16T02:28:18;2.90;99.90
6581;DHT22;3324;50.796;7.228;2024-01-16T02:30:44;2.90;99.90
6581;DHT22;3324;50.796;7.228;2024-01-16T02:33:10;2.90;99.90
6581;DHT22;3324;50.796;7.228;2024-01-16T02:35:35;2.80;99.90
6581;DHT22;3324;50.796;7.228;2024-01-16T02:38:00;2.70;99.90
6581;DHT22;3324;50.796;7.228;2024-01-16T02:40:26;2.80;99.90
6581;DHT22;3324;50.796;7.228;2024-01-16T02:42:52;2.70;99.90
6581;DHT22;3324;50.796;7.228;2024-01-16T02:45:17;2.70;99.90
6581;DHT22;3324;50.796;7.228;2024-01-16T02:47:43;2.70;99.90
6581;DHT22;3324;50.796;7.228;2024-01-16T02:50:08;2.70;99.90
6581;DHT22;3324;50.796;7.228;2024-01-16T02:52:36;2.70;99.90
6581;DHT22;3324;50.796;7.228;2024-01-16T02:55:21;2.70;99.90
6581;DHT22;3324;50.796;7.228;2024-01-16T02:57:47;2.70;99.90
6581;DHT22;3324;50.796;7.228;2024-01-16T03:00:12;2.60;99.90
6581;DHT22;3324;50.796;7.228;2024-01-16T03:02:39;2.70;99.90
6581;DHT22;3324;50.796;7.228;2024-01-16T03:05:04;2.70;99.90
6581;DHT22;3324;50.796;7.228;2024-01-16T03:07:30;2.70;99.90
6581;DHT22;3324;50.796;7.228;2024-01-16T03:09:56;2.70;99.90
6581;DHT22;3324;50.796;7.228;2024-01-16T03:12:21;2.70;99.90
6581;DHT22;3324;50.796;7.228;2024-01-16T03:14:51;2.70;99.90
6581;DHT22;3324;50.796;7.228;2024-01-16T03:17:18;2.70;99.90
6581;DHT22;3324;50.796;7.228;2024-01-16T03:19:44;2.60;99.90
6581;DHT22;3324;50.796;7.228;2024-01-16T03:22:10;2.60;99.90
6581;DHT22;3324;50.796;7.228;2024-01-16T03:24:35;2.60;99.90
6581;DHT22;3324;50.796;7.228;2024-01-16T03:27:01;2.70;99.90
6581;DHT22;3324;50.796;7.228;2024-01-16T03:29:26;2.70;99.90
6581;DHT22;3324;50.796;7.228;2024-01-16T03:31:52;2.60;99.90
6581;DHT22;3324;50.796;7.228;2024-01-16T03:34:18;2.60;99.90
6581;DHT22;3324;50.796;7.228;2024-01-16T03:36:44;2.60;99.90
6581;DHT22;3324;50.796;7.228;2024-01-16T03:39:09;2.60;99.90
6581;DHT22;3324;50.796;7.228;2024-01-16T03:41:35;2.60;99.90
6581;DHT22;3324;50.796;7.228;2024-01-16T03:44:00;2.60;99.90
6581;DHT22;3324;50.796;7.228;2024-01-16T03:46:26;2.60;99.90
6581;DHT22;3324;50.796;7.228;2024-01-16T03:48:51;2.70;99.90
6581;DHT22;3324;50.796;7.228;2024-01-16T03:51:17;2.80;99.90
6581;DHT22;3324;50.796;7.228;2024-01-16T03:53:45;2.70;99.90
6581;DHT22;3324;50.796;7.228;2024-01-16T03:56:10;2.70;99.90
6581;DHT22;3324;50.796;7.228;2024-01-16T03:58:36;2.60;99.90
6581;DHT22;3324;50.796;7.228;2024-01-16T04:01:01;2.60;99.90
6581;DHT22;3324;50.796;7.228;2024-01-16T04:03:27;2.60;99.90
6581;DHT22;3324;50.796;7.228;2024-01-16T04:05:52;2.60;99.90
6581;DHT22;3324;50.796;7.228;2024-01-16T04:08:18;2.60;99.90
6581;DHT22;3324;50.796;7.228;2024-01-16T04:10:43;2.60;99.90
6581;DHT22;3324;50.796;7.228;2024-01-16T04:13:09;2.50;99.90
6581;DHT22;3324;50.796;7.228;2024-01-16T04:15:37;2.50;99.90
6581;DHT22;3324;50.796;7.228;2024-01-16T04:18:02;2.50;99.90
6581;DHT22;3324;50.796;7.228;2024-01-16T04:20:28;2.60;99.90
6581;DHT22;3324;50.796;7.228;2024-01-16T04:22:55;2.60;99.90
6581;DHT22;3324;50.796;7.228;2024-01-16T04:25:21;2.50;99.90
6581;DHT22;3324;50.796;7.228;2024-01-16T04:27:47;2.50;99.90
6581;DHT22;3324;50.796;7.228;2024-01-16T04:30:12;2.50;99.90
6581;DHT22;3324;50.796;7.228;2024-01-16T04:32:38;2.50;99.90
6581;DHT22;3324;50.796;7.228;2024-01-16T04:35:03;2.50;99.90
6581;DHT22;3324;50.796;7.228;2024-01-16T04:37:29;2.40;99.90
6581;DHT22;3324;50.796;7.228;2024-01-16T04:39:54;2.40;99.90
6581;DHT22;3324;50.796;7.228;2024-01-16T04:42:20;2.40;99.90
6581;DHT22;3324;50.796;7.228;2024-01-16T04:44:45;2.40;99.90
6581;DHT22;3324;50.796;7.228;2024-01-16T04:47:11;2.40;99.90
6581;DHT22;3324;50.796;7.228;2024-01-16T04:49:37;2.50;99.90
6581;DHT22;3324;50.796;7.228;2024-01-16T04:52:02;2.50;99.90
6581;DHT22;3324;50.796;7.228;2024-01-16T04:54:28;2.40;99.90
6581;DHT22;3324;50.796;7.228;2024-01-16T04:56:54;2.40;99.90
6581;DHT22;3324;50.796;7.228;2024-01-16T04:59:19;2.50;99.90
6581;DHT22;3324;50.796;7.228;2024-01-16T05:01:45;2.40;99.90
6581;DHT22;3324;50.796;7.228;2024-01-16T05:04:10;2.40;99.90
6581;DHT22;3324;50.796;7.228;2024-01-16T05:06:36;2.40;99.90
6581;DHT22;3324;50.796;7.228;2024-01-16T05:09:01;2.40;99.90
6581;DHT22;3324;50.796;7.228;2024-01-16T05:11:28;2.40;99.90
6581;DHT22;3324;50.796;7.228;2024-01-16T05:13:54;2.50;99.90
6581;DHT22;3324;50.796;7.228;2024-01-16T05:16:25;2.50;99.90
6581;DHT22;3324;50.796;7.228;2024-01-16T05:18:51;2.50;99.90
6581;DHT22;3324;50.796;7.228;2024-01-16T05:21:17;2.50;99.90
6581;DHT22;3324;50.796;7.228;2024-01-16T05:23:43;2.50;99.90
6581;DHT22;3324;50.796;7.228;2024-01-16T05:26:08;2.50;99.90
6581;DHT22;3324;50.796;7.228;2024-01-16T05:28:34;2.60;99.90
6581;DHT22;3324;50.796;7.228;2024-01-16T05:30:59;2.60;99.90
6581;DHT22;3324;50.796;7.228;2024-01-16T05:33:25;2.50;99.90
6581;DHT22;3324;50.796;7.228;2024-01-16T05:35:50;2.50;99.90
6581;DHT22;3324;50.796;7.228;2024-01-16T05:38:16;2.50;99.90
6581;DHT22;3324;50.796;7.228;2024-01-16T05:40:42;2.50;99.90
6581;DHT22;3324;50.796;7.228;2024-01-16T05:43:07;2.50;99.90
6581;DHT22;3324;50.796;7.228;2024-01-16T05:45:33;2.60;99.90
6581;DHT22;3324;50.796;7.228;2024-01-16T05:47:58;2.60;99.90
6581;DHT22;3324;50.796;7.228;2024-01-16T05:50:24;2.50;99.90
6581;DHT22;3324;50.796;7.228;2024-01-16T05:52:49;2.60;99.90
6581;DHT22;3324;50.796;7.228;2024-01-16T05:55:15;2.60;99.90
6581;DHT22;3324;50.796;7.228;2024-01-16T05:57:40;2.50;99.90
6581;DHT22;3324;50.796;7.228;2024-01-16T06:00:07;2.50;99.90
6581;DHT22;3324;50.796;7.228;2024-01-16T06:02:32;2.40;99.90
6581;DHT22;3324;50.796;7.228;2024-01-16T06:04:58;2.50;99.90
6581;DHT22;3324;50.796;7.228;2024-01-16T06:07:23;2.50;99.90
6581;DHT22;3324;50.796;7.228;2024-01-16T06:09:49;2.50;99.90
6581;DHT22;3324;50.796;7.228;2024-01-16T06:12:14;2.50;99.90
6581;DHT22;3324;50.796;7.228;2024-01-16T06:14:40;2.50;99.90
6581;DHT22;3324;50.796;7.228;2024-01-16T06:17:05;2.50;99.90
6581;DHT22;3324;50.796;7.228;2024-01-16T06:19:31;2.50;99.90
6581;DHT22;3324;50.796;7.228;2024-01-16T06:21:57;2.60;99.90
6581;DHT22;3324;50.796;7.228;2024-01-16T06:24:22;2.50;99.90
6581;DHT22;3324;50.796;7.228;2024-01-16T06:26:48;2.50;99.90
6581;DHT22;3324;50.796;7.228;2024-01-16T06:29:13;2.50;99.90
6581;DHT22;3324;50.796;7.228;2024-01-16T06:31:39;2.60;99.90
6581;DHT22;3324;50.796;7.228;2024-01-16T06:34:04;2.50;99.90
6581;DHT22;3324;50.796;7.228;2024-01-16T06:36:30;2.50;99.90
6581;DHT22;3324;50.796;7.228;2024-01-16T06:38:55;2.60;99.90
6581;DHT22;3324;50.796;7.228;2024-01-16T06:41:21;2.60;99.90
6581;DHT22;3324;50.796;7.228;2024-01-16T06:43:46;2.50;99.90
6581;DHT22;3324;50.796;7.228;2024-01-16T06:46:12;2.50;99.90
6581;DHT22;3324;50.796;7.228;2024-01-16T06:48:37;2.50;99.90
6581;DHT22;3324;50.796;7.228;2024-01-16T06:51:03;2.60;99.90
6581;DHT22;3324;50.796;7.228;2024-01-16T06:53:29;2.50;99.90
6581;DHT22;3324;50.796;7.228;2024-01-16T06:55:54;2.50;99.90
6581;DHT22;3324;50.796;7.228;2024-01-16T06:58:20;2.50;99.90
6581;DHT22;3324;50.796;7.228;2024-01-16T07:00:46;2.60;99.90
6581;DHT22;3324;50.796;7.228;2024-01-16T07:03:12;2.60;99.90
6581;DHT22;3324;50.796;7.228;2024-01-16T07:05:38;2.60;99.90
6581;DHT22;3324;50.796;7.228;2024-01-16T07:08:03;2.60;99.90
6581;DHT22;3324;50.796;7.228;2024-01-16T07:10:29;2.60;99.90
6581;DHT22;3324;50.796;7.228;2024-01-16T07:12:54;2.60;99.90
6581;DHT22;3324;50.796;7.228;2024-01-16T07:15:21;2.60;99.90
6581;DHT22;3324;50.796;7.228;2024-01-16T07:17:47;2.70;99.90
6581;DHT22;3324;50.796;7.228;2024-01-16T07:20:12;2.60;99.90
6581;DHT22;3324;50.796;7.228;2024-01-16T07:22:38;2.60;99.90
6581;DHT22;3324;50.796;7.228;2024-01-16T07:25:06;2.60;99.90
6581;DHT22;3324;50.796;7.228;2024-01-16T07:27:32;2.70;99.90
6581;DHT22;3324;50.796;7.228;2024-01-16T07:29:57;2.70;99.90
6581;DHT22;3324;50.796;7.228;2024-01-16T07:32:23;2.70;99.90
6581;DHT22;3324;50.796;7.228;2024-01-16T07:34:48;2.70;99.90
6581;DHT22;3324;50.796;7.228;2024-01-16T07:37:15;2.70;99.90
6581;DHT22;3324;50.796;7.228;2024-01-16T07:39:41;2.70;99.90
6581;DHT22;3324;50.796;7.228;2024-01-16T07:42:06;2.60;99.90
6581;DHT22;3324;50.796;7.228;2024-01-16T07:44:33;2.60;99.90
6581;DHT22;3324;50.796;7.228;2024-01-16T07:46:58;2.60;99.90
6581;DHT22;3324;50.796;7.228;2024-01-16T07:49:24;2.60;99.90
6581;DHT22;3324;50.796;7.228;2024-01-16T07:51:49;2.70;99.90
6581;DHT22;3324;50.796;7.228;2024-01-16T07:54:15;2.60;99.90
6581;DHT22;3324;50.796;7.228;2024-01-16T07:56:41;2.60;99.90
6581;DHT22;3324;50.796;7.228;2024-01-16T07:59:06;2.60;99.90
6581;DHT22;3324;50.796;7.228;2024-01-16T08:01:32;2.60;99.90
6581;DHT22;3324;50.796;7.228;2024-01-16T08:03:58;2.60;99.90
6581;DHT22;3324;50.796;7.228;2024-01-16T08:06:23;2.70;99.90
6581;DHT22;3324;50.796;7.228;2024-01-16T08:08:49;2.60;99.90
6581;DHT22;3324;50.796;7.228;2024-01-16T08:11:15;2.70;99.90
6581;DHT22;3324;50.796;7.228;2024-01-16T08:13:40;2.60;99.90
6581;DHT22;3324;50.796;7.228;2024-01-16T08:16:07;2.60;99.90
6581;DHT22;3324;50.796;7.228;2024-01-16T08:18:33;2.60;99.90
6581;DHT22;3324;50.796;7.228;2024-01-16T08:20:58;2.60;99.90
6581;DHT22;3324;50.796;7.228;2024-01-16T08:23:24;2.70;99.90
6581;DHT22;3324;50.796;7.228;2024-01-16T08:25:49;2.50;99.90
6581;DHT22;3324;50.796;7.228;2024-01-16T08:28:17;2.50;99.90
6581;DHT22;3324;50.796;7.228;2024-01-16T08:30:42;2.60;99.90
6581;DHT22;3324;50.796;7.228;2024-01-16T08:33:08;2.60;99.90
6581;DHT22;3324;50.796;7.228;2024-01-16T08:35:33;2.60;99.90
6581;DHT22;3324;50.796;7.228;2024-01-16T08:37:59;2.70;99.90
6581;DHT22;3324;50.796;7.228;2024-01-16T08:40:24;2.60;99.90
6581;DHT22;3324;50.796;7.228;2024-01-16T08:42:50;2.60;99.90
6581;DHT22;3324;50.796;7.228;2024-01-16T08:45:23;2.70;99.90
6581;DHT22;3324;50.796;7.228;2024-01-16T08:47:48;2.70;99.90
6581;DHT22;3324;50.796;7.228;2024-01-16T08:50:15;2.70;99.90
6581;DHT22;3324;50.796;7.228;2024-01-16T08:52:40;2.70;99.90
6581;DHT22;3324;50.796;7.228;2024-01-16T08:55:06;2.60;99.90
6581;DHT22;3324;50.796;7.228;2024-01-16T08:57:31;2.60;99.90
6581;DHT22;3324;50.796;7.228;2024-01-16T08:59:57;2.60;99.90
6581;DHT22;3324;50.796;7.228;2024-01-16T09:02:22;2.60;99.90
6581;DHT22;3324;50.796;7.228;2024-01-16T09:04:49;2.50;99.90
6581;DHT22;3324;50.796;7.228;2024-01-16T09:07:16;2.50;99.90
6581;DHT22;3324;50.796;7.228;2024-01-16T09:09:41;2.60;99.90
6581;DHT22;3324;50.796;7.228;2024-01-16T09:12:10;2.60;99.90
6581;DHT22;3324;50.796;7.228;2024-01-16T09:14:36;2.60;99.90
6581;DHT22;3324;50.796;7.228;2024-01-16T09:17:01;2.50;99.90
6581;DHT22;3324;50.796;7.228;2024-01-16T09:19:28;2.40;99.90
6581;DHT22;3324;50.796;7.228;2024-01-16T09:21:54;2.40;99.90
6581;DHT22;3324;50.796;7.228;2024-01-16T09:24:20;2.40;99.90
6581;DHT22;3324;50.796;7.228;2024-01-16T09:26:46;2.40;99.90
6581;DHT22;3324;50.796;7.228;2024-01-16T09:29:12;2.40;99.90
6581;DHT22;3324;50.796;7.228;2024-01-16T09:31:37;2.50;99.90
6581;DHT22;3324;50.796;7.228;2024-01-16T09:34:03;2.50;99.90
6581;DHT22;3324;50.796;7.228;2024-01-16T09:36:29;2.50;99.90
6581;DHT22;3324;50.796;7.228;2024-01-16T09:38:54;2.50;99.90
6581;DHT22;3324;50.796;7.228;2024-01-16T09:41:20;2.60;99.90
6581;DHT22;3324;50.796;7.228;2024-01-16T09:43:46;2.70;99.90
6581;DHT22;3324;50.796;7.228;2024-01-16T09:46:12;2.70;99.90
6581;DHT22;3324;50.796;7.228;2024-01-16T09:48:39;2.70;99.90
6581;DHT22;3324;50.796;7.228;2024-01-16T09:51:05;2.80;99.90
6581;DHT22;3324;50.796;7.228;2024-01-16T09:53:31;2.70;99.90
6581;DHT22;3324;50.796;7.228;2024-01-16T09:55:57;2.70;99.90
6581;DHT22;3324;50.796;7.228;2024-01-16T09:58:25;2.70;99.90
6581;DHT22;3324;50.796;7.228;2024-01-16T10:00:50;2.70;99.90
6581;DHT22;3324;50.796;7.228;2024-01-16T10:03:16;2.80;99.90
6581;DHT22;3324;50.796;7.228;2024-01-16T10:05:42;2.80;99.90
6581;DHT22;3324;50.796;7.228;2024-01-16T10:08:08;2.90;99.90
6581;DHT22;3324;50.796;7.228;2024-01-16T10:10:33;3.00;99.90
6581;DHT22;3324;50.796;7.228;2024-01-16T10:12:59;3.00;99.90
6581;DHT22;3324;50.796;7.228;2024-01-16T10:15:24;3.00;99.90
6581;DHT22;3324;50.796;7.228;2024-01-16T10:17:50;3.00;99.90
6581;DHT22;3324;50.796;7.228;2024-01-16T10:20:16;3.00;99.90
6581;DHT22;3324;50.796;7.228;2024-01-16T10:22:53;3.10;99.90
6581;DHT22;3324;50.796;7.228;2024-01-16T10:25:19;3.10;99.90
6581;DHT22;3324;50.796;7.228;2024-01-16T10:27:46;3.20;99.90
6581;DHT22;3324;50.796;7.228;2024-01-16T10:30:12;3.10;99.90
6581;DHT22;3324;50.796;7.228;2024-01-16T10:32:41;3.10;99.90
6581;DHT22;3324;50.796;7.228;2024-01-16T10:35:13;3.10;99.90
6581;DHT22;3324;50.796;7.228;2024-01-16T10:37:48;3.10;99.90
6581;DHT22;3324;50.796;7.228;2024-01-16T10:40:14;3.10;99.90
6581;DHT22;3324;50.796;7.228;2024-01-16T10:42:40;3.10;99.90
6581;DHT22;3324;50.796;7.228;2024-01-16T10:45:06;3.00;99.90
6581;DHT22;3324;50.796;7.228;2024-01-16T10:47:31;3.10;99.90
6581;DHT22;3324;50.796;7.228;2024-01-16T10:50:00;3.20;99.90
6581;DHT22;3324;50.796;7.228;2024-01-16T10:52:27;3.20;99.90
6581;DHT22;3324;50.796;7.228;2024-01-16T10:54:53;3.40;99.90
6581;DHT22;3324;50.796;7.228;2024-01-16T10:57:21;3.50;99.90
6581;DHT22;3324;50.796;7.228;2024-01-16T11:00:00;3.50;99.90
6581;DHT22;3324;50.796;7.228;2024-01-16T11:02:31;3.40;99.90
6581;DHT22;3324;50.796;7.228;2024-01-16T11:04:58;3.40;99.90
6581;DHT22;3324;50.796;7.228;2024-01-16T11:07:24;3.40;99.90
6581;DHT22;3324;50.796;7.228;2024-01-16T11:09:51;3.40;99.90
6581;DHT22;3324;50.796;7.228;2024-01-16T11:12:17;3.30;99.90
6581;DHT22;3324;50.796;7.228;2024-01-16T11:14:45;3.30;99.90
6581;DHT22;3324;50.796;7.228;2024-01-16T11:17:13;3.30;99.90
6581;DHT22;3324;50.796;7.228;2024-01-16T11:19:44;3.40;99.90
6581;DHT22;3324;50.796;7.228;2024-01-16T11:22:09;3.50;99.90
6581;DHT22;3324;50.796;7.228;2024-01-16T11:24:35;3.50;99.90
6581;DHT22;3324;50.796;7.228;2024-01-16T11:27:01;3.50;99.90
6581;DHT22;3324;50.796;7.228;2024-01-16T11:31:52;3.60;99.90
6581;DHT22;3324;50.796;7.228;2024-01-16T11:34:52;3.60;99.90
6581;DHT22;3324;50.796;7.228;2024-01-16T11:37:03;3.60;99.90
6581;DHT22;3324;50.796;7.228;2024-01-16T11:39:32;3.60;99.90
6581;DHT22;3324;50.796;7.228;2024-01-16T11:41:58;3.70;99.90
6581;DHT22;3324;50.796;7.228;2024-01-16T11:44:40;3.70;99.90
6581;DHT22;3324;50.796;7.228;2024-01-16T11:47:06;3.90;99.90
6581;DHT22;3324;50.796;7.228;2024-01-16T11:49:32;3.90;99.90
6581;DHT22;3324;50.796;7.228;2024-01-16T11:51:58;4.00;99.90
6581;DHT22;3324;50.796;7.228;2024-01-16T11:54:24;4.10;99.90
6581;DHT22;3324;50.796;7.228;2024-01-16T12:02:07;4.10;99.90
6581;DHT22;3324;50.796;7.228;2024-01-16T12:04:34;4.10;99.90
6581;DHT22;3324;50.796;7.228;2024-01-16T12:07:00;4.00;99.90
6581;DHT22;3324;50.796;7.228;2024-01-16T12:09:27;4.10;99.90
6581;DHT22;3324;50.796;7.228;2024-01-16T12:11:59;4.10;99.90
6581;DHT22;3324;50.796;7.228;2024-01-16T12:14:26;4.10;99.90
6581;DHT22;3324;50.796;7.228;2024-01-16T12:16:52;4.10;99.90
6581;DHT22;3324;50.796;7.228;2024-01-16T12:19:17;4.10;99.90
6581;DHT22;3324;50.796;7.228;2024-01-16T12:21:45;4.00;99.90
6581;DHT22;3324;50.796;7.228;2024-01-16T12:24:11;4.00;99.90
6581;DHT22;3324;50.796;7.228;2024-01-16T12:26:37;3.90;99.90
6581;DHT22;3324;50.796;7.228;2024-01-16T12:29:02;3.90;99.90
6581;DHT22;3324;50.796;7.228;2024-01-16T12:31:28;4.00;99.90
6581;DHT22;3324;50.796;7.228;2024-01-16T12:36:32;3.90;99.90
6581;DHT22;3324;50.796;7.228;2024-01-16T12:38:58;4.00;99.90
6581;DHT22;3324;50.796;7.228;2024-01-16T12:41:23;4.00;99.90
6581;DHT22;3324;50.796;7.228;2024-01-16T12:43:52;4.00;99.90
6581;DHT22;3324;50.796;7.228;2024-01-16T12:46:18;4.00;99.90
6581;DHT22;3324;50.796;7.228;2024-01-16T12:48:44;3.90;99.90
6581;DHT22;3324;50.796;7.228;2024-01-16T12:51:10;3.70;99.90
6581;DHT22;3324;50.796;7.228;2024-01-16T12:53:37;3.60;99.90
6581;DHT22;3324;50.796;7.228;2024-01-16T12:56:05;3.50;99.90
6581;DHT22;3324;50.796;7.228;2024-01-16T12:58:34;3.60;99.90
6581;DHT22;3324;50.796;7.228;2024-01-16T13:03:44;3.70;99.90
6581;DHT22;3324;50.796;7.228;2024-01-16T13:06:09;3.60;99.90
6581;DHT22;3324;50.796;7.228;2024-01-16T13:08:35;3.60;99.90
6581;DHT22;3324;50.796;7.228;2024-01-16T13:11:01;3.60;99.90
6581;DHT22;3324;50.796;7.228;2024-01-16T13:13:27;3.60;99.90
6581;DHT22;3324;50.796;7.228;2024-01-16T13:15:53;3.70;99.90
6581;DHT22;3324;50.796;7.228;2024-01-16T13:18:23;3.90;99.90
6581;DHT22;3324;50.796;7.228;2024-01-16T13:20:52;3.90;99.90
6581;DHT22;3324;50.796;7.228;2024-01-16T13:23:19;4.00;99.90
6581;DHT22;3324;50.796;7.228;2024-01-16T13:25:45;4.10;99.90
6581;DHT22;3324;50.796;7.228;2024-01-16T13:28:12;4.20;99.90
6581;DHT22;3324;50.796;7.228;2024-01-16T13:30:42;4.30;99.90
6581;DHT22;3324;50.796;7.228;2024-01-16T13:33:07;4.40;99.90
6581;DHT22;3324;50.796;7.228;2024-01-16T13:35:43;4.40;99.90
6581;DHT22;3324;50.796;7.228;2024-01-16T13:38:08;4.40;99.90
6581;DHT22;3324;50.796;7.228;2024-01-16T13:40:35;4.30;99.90
6581;DHT22;3324;50.796;7.228;2024-01-16T13:43:01;4.20;99.90
6581;DHT22;3324;50.796;7.228;2024-01-16T13:45:27;4.10;99.90
6581;DHT22;3324;50.796;7.228;2024-01-16T13:47:53;4.10;99.90
6581;DHT22;3324;50.796;7.228;2024-01-16T13:50:19;3.90;99.90
6581;DHT22;3324;50.796;7.228;2024-01-16T13:52:44;3.80;99.90
6581;DHT22;3324;50.796;7.228;2024-01-16T13:55:12;3.70;99.90
6581;DHT22;3324;50.796;7.228;2024-01-16T13:57:38;3.70;99.90
6581;DHT22;3324;50.796;7.228;2024-01-16T14:00:04;3.70;99.90
6581;DHT22;3324;50.796;7.228;2024-01-16T14:02:30;3.60;99.90
6581;DHT22;3324;50.796;7.228;2024-01-16T14:04:56;3.70;99.90
6581;DHT22;3324;50.796;7.228;2024-01-16T14:07:21;3.90;99.90
6581;DHT22;3324;50.796;7.228;2024-01-16T14:09:47;3.90;99.90
6581;DHT22;3324;50.796;7.228;2024-01-16T14:12:13;3.90;99.90
6581;DHT22;3324;50.796;7.228;2024-01-16T14:14:39;3.80;99.90
6581;DHT22;3324;50.796;7.228;2024-01-16T14:17:05;3.80;99.90
6581;DHT22;3324;50.796;7.228;2024-01-16T14:19:30;3.70;99.90
6581;DHT22;3324;50.796;7.228;2024-01-16T14:21:56;3.60;99.90
6581;DHT22;3324;50.796;7.228;2024-01-16T14:24:22;3.60;99.90
6581;DHT22;3324;50.796;7.228;2024-01-16T14:26:47;3.60;99.90
6581;DHT22;3324;50.796;7.228;2024-01-16T14:29:13;3.70;99.90
6581;DHT22;3324;50.796;7.228;2024-01-16T14:31:38;3.60;99.90
6581;DHT22;3324;50.796;7.228;2024-01-16T14:34:11;3.60;99.90
6581;DHT22;3324;50.796;7.228;2024-01-16T14:36:39;3.60;99.90
6581;DHT22;3324;50.796;7.228;2024-01-16T14:39:05;3.50;99.90
6581;DHT22;3324;50.796;7.228;2024-01-16T14:41:30;3.40;99.90
6581;DHT22;3324;50.796;7.228;2024-01-16T14:43:57;3.40;99.90
6581;DHT22;3324;50.796;7.228;2024-01-16T14:46:22;3.30;99.90
6581;DHT22;3324;50.796;7.228;2024-01-16T14:48:48;3.30;99.90
6581;DHT22;3324;50.796;7.228;2024-01-16T14:51:13;3.30;99.90
6581;DHT22;3324;50.796;7.228;2024-01-16T14:53:39;3.20;99.90
6581;DHT22;3324;50.796;7.228;2024-01-16T14:56:04;3.20;99.90
6581;DHT22;3324;50.796;7.228;2024-01-16T14:58:30;3.40;99.90
6581;DHT22;3324;50.796;7.228;2024-01-16T15:00:56;3.40;99.90
6581;DHT22;3324;50.796;7.228;2024-01-16T15:03:22;3.40;99.90
6581;DHT22;3324;50.796;7.228;2024-01-16T15:05:47;3.30;99.90
6581;DHT22;3324;50.796;7.228;2024-01-16T15:08:13;3.20;99.90
6581;DHT22;3324;50.796;7.228;2024-01-16T15:10:39;3.20;99.90
6581;DHT22;3324;50.796;7.228;2024-01-16T15:13:04;3.10;99.90
6581;DHT22;3324;50.796;7.228;2024-01-16T15:15:30;3.10;99.90
6581;DHT22;3324;50.796;7.228;2024-01-16T15:17:56;3.10;99.90
6581;DHT22;3324;50.796;7.228;2024-01-16T15:20:21;3.00;99.90
6581;DHT22;3324;50.796;7.228;2024-01-16T15:22:47;3.00;99.90
6581;DHT22;3324;50.796;7.228;2024-01-16T15:25:15;3.00;99.90
6581;DHT22;3324;50.796;7.228;2024-01-16T15:27:42;2.90;99.90
6581;DHT22;3324;50.796;7.228;2024-01-16T15:30:08;2.90;99.90
6581;DHT22;3324;50.796;7.228;2024-01-16T15:32:33;2.90;99.90
6581;DHT22;3324;50.796;7.228;2024-01-16T15:34:59;3.00;99.90
6581;DHT22;3324;50.796;7.228;2024-01-16T15:37:25;2.90;99.90
6581;DHT22;3324;50.796;7.228;2024-01-16T15:39:51;2.90;99.90
6581;DHT22;3324;50.796;7.228;2024-01-16T15:42:16;2.80;99.90
6581;DHT22;3324;50.796;7.228;2024-01-16T15:44:42;2.80;99.90
6581;DHT22;3324;50.796;7.228;2024-01-16T15:47:08;2.80;99.90
6581;DHT22;3324;50.796;7.228;2024-01-16T15:49:34;2.70;99.90
6581;DHT22;3324;50.796;7.228;2024-01-16T15:52:00;2.70;99.90
6581;DHT22;3324;50.796;7.228;2024-01-16T15:54:27;2.60;99.90
6581;DHT22;3324;50.796;7.228;2024-01-16T15:56:53;2.60;99.90
6581;DHT22;3324;50.796;7.228;2024-01-16T15:59:19;2.50;99.90
6581;DHT22;3324;50.796;7.228;2024-01-16T16:01:45;2.50;99.90
6581;DHT22;3324;50.796;7.228;2024-01-16T16:04:10;2.60;99.90
6581;DHT22;3324;50.796;7.228;2024-01-16T16:06:39;2.60;99.90
6581;DHT22;3324;50.796;7.228;2024-01-16T16:09:05;2.60;99.90
6581;DHT22;3324;50.796;7.228;2024-01-16T16:11:36;2.60;99.90
6581;DHT22;3324;50.796;7.228;2024-01-16T16:14:02;2.60;99.90
6581;DHT22;3324;50.796;7.228;2024-01-16T16:16:30;2.60;99.90
6581;DHT22;3324;50.796;7.228;2024-01-16T16:18:56;2.50;99.90
6581;DHT22;3324;50.796;7.228;2024-01-16T16:21:21;2.40;99.90
6581;DHT22;3324;50.796;7.228;2024-01-16T16:23:47;2.40;99.90